Aérodrome :
LOGIN :

S'inscrire | Disclaimer

   EN    FR    IT 

 










Légende :    VFR   VFR Marginal   IFR   IFR Intensif   IFR Très Intensif
Visi : 
Plafond : 
>= 8 km
>= 3000ft
5 à 8 km
1000 à 3000 ft
1500m à 5 km
500 à 1000 ft
800 à 1500m
200 à 500 ft
< 800m
< 200 ft
Symboles :   Orages  Brouillard  Fortes neiges  Fortes précipitations  Vent > 20 kt
SIGMETs :   Divers  Orages  Givrage  Turbulence  Onde Orograph.  Cendres Volcan.







- Altitude de l'aérodrome : 659 ft
- Code IATA : LGG


EBLG - Liège

DERNIER METAR :
  • 251350Z 31009KT 250V340 9999 FEW025CB 07/00 Q1011 TEMPO 4500 SHRA SHRAGS BKN014CB

METARs EXPIRÉS :
  • 251320Z 29011KT 250V330 9999 FEW025CB SCT032 07/00 Q1011 TEMPO 4500 SHRA SHRAGS BKN014CB
  • 251250Z 31009KT 270V350 9999 SCT020TCU SCT040 08/M00 Q1011 TEMPO 4500 SHRA SHRAGS BKN014CB
  • 251220Z 32007KT 280V360 9999 FEW030 SCT040 07/02 Q1011 TEMPO 4500 SHRA SHRAGS BKN014CB
  • 251150Z 32010G20KT 260V360 9999 -SHRA SCT030 BKN040 07/01 Q1010 TEMPO 4500 SHRA SHRAGS

TAF TAF EBLG
Valide du 25 à 12h jusqu'au 26 à 18h UTC


251110Z 2512/2618 29010KT 9999 SCT035 SCT045
PROB30
TEMPO 2512/2514 4000 SHRA BKN012CB
PROB30
TEMPO 2608/2612 4000 SHRA BKN014TCU
TEMPO 2513/2517 4000 SHRA SCT008 BKN014CB
PROB30
TEMPO 2612/2616 2500 TSRAGS
Pas de NOTAMs connus pour ce terrain.



MET'MAP, la Météo Aéronautique d'un coup d'oeil ! - Copyright ORBIFLY Décembre 2007 - Disclaimer

ORBIFLY MET'MAP TEAM :

Programmation & Développement : Alexandra Zaïnal
Conception & Développement : Baudouin d'Aumeries
Co-Programmation & Développement : Marc-Olivier Méhu
Soutien technique & logistique : Manuel Goepfert

Contact : metmap@orbifly.com




SOURCES & CREDITS :

   NOAA